Time;durP1;ratioP1;P1;durP2;ratioP2;P2;SDS_P1;SDS_P2;PMS_P1;PMS_P2;Temp;Humidity;BMP_temperature;BMP_pressure;BME280_temperature;BME280_humidity;BME280_pressure;Samples;Min_cycle;Max_cycle;Signal;HPM_P1;HPM_P2
2021/05/28 00:02:14;;;;;;;11.73;8.05;;;;;;;9.59;100.00;98083.72;4974603;28;20070;-81
2021/05/28 00:04:42;;;;;;;13.13;8.35;;;;;;;9.61;100.00;98093.13;4939911;28;20039;-83
2021/05/28 00:07:11;;;;;;;14.82;8.30;;;;;;;9.57;100.00;98089.44;4975603;28;20104;-83
2021/05/28 00:09:39;;;;;;;14.80;8.10;;;;;;;9.58;100.00;98090.22;4958291;28;20077;-84
2021/05/28 00:12:07;;;;;;;12.70;7.90;;;;;;;9.57;100.00;98086.72;4981517;28;20545;-83
2021/05/28 00:14:34;;;;;;;13.45;8.38;;;;;;;9.50;100.00;98089.00;4958006;28;20039;-84
2021/05/28 00:17:01;;;;;;;14.25;8.40;;;;;;;9.48;100.00;98088.50;4959107;28;20046;-82
2021/05/28 00:19:30;;;;;;;13.65;8.20;;;;;;;9.53;100.00;98093.81;4958154;28;20043;-81
2021/05/28 00:21:56;;;;;;;17.63;8.75;;;;;;;9.56;100.00;98101.31;4976191;28;20038;-83
2021/05/28 00:24:24;;;;;;;15.40;7.93;;;;;;;9.57;100.00;98104.84;4975306;28;20062;-82
2021/05/28 00:26:50;;;;;;;17.42;8.23;;;;;;;9.59;100.00;98099.94;4959827;28;20429;-82
2021/05/28 00:29:17;;;;;;;12.85;7.82;;;;;;;9.58;100.00;98090.22;4957677;28;20050;-84
2021/05/28 00:31:43;;;;;;;14.77;8.43;;;;;;;9.56;100.00;98084.31;4976040;28;20403;-82
2021/05/28 00:34:10;;;;;;;14.15;8.45;;;;;;;9.64;100.00;98091.72;4975534;28;20039;-84
2021/05/28 00:36:36;;;;;;;13.32;8.63;;;;;;;9.60;100.00;98102.31;4958315;28;20099;-83
2021/05/28 00:39:04;;;;;;;16.00;8.88;;;;;;;9.60;100.00;98080.69;4943411;28;20137;-82
2021/05/28 00:41:30;;;;;;;13.80;8.50;;;;;;;9.61;100.00;98089.63;4975706;28;20047;-82
2021/05/28 00:43:57;;;;;;;15.68;8.73;;;;;;;9.67;100.00;98089.25;4975689;28;20039;-82
2021/05/28 00:46:26;;;;;;;16.13;9.55;;;;;;;9.68;100.00;98095.47;4957782;28;20043;-84
2021/05/28 00:48:54;;;;;;;14.05;8.95;;;;;;;9.66;100.00;98090.34;4957294;28;20038;-81
2021/05/28 00:51:21;;;;;;;13.35;8.60;;;;;;;9.64;100.00;98092.53;4974714;28;20513;-83
2021/05/28 00:53:48;;;;;;;15.02;8.90;;;;;;;9.60;100.00;98091.50;4941361;28;20085;-84
2021/05/28 00:56:16;;;;;;;16.27;8.70;;;;;;;9.65;100.00;98096.81;4957981;28;20047;-82
2021/05/28 00:58:43;;;;;;;13.77;8.10;;;;;;;9.68;100.00;98098.16;4975631;28;20085;-84
2021/05/28 01:01:10;;;;;;;16.17;8.63;;;;;;;9.65;100.00;98094.13;4958756;28;20073;-83
2021/05/28 01:03:36;;;;;;;16.95;9.25;;;;;;;9.68;100.00;98106.28;4957104;28;20048;-83
2021/05/28 01:06:03;;;;;;;14.27;8.80;;;;;;;9.63;100.00;98099.03;4973650;28;20046;-82
2021/05/28 01:08:30;;;;;;;12.63;8.57;;;;;;;9.64;100.00;98100.66;4956449;28;20125;-83
2021/05/28 01:10:57;;;;;;;16.02;9.35;;;;;;;9.64;100.00;98103.34;4954960;28;20047;-81
2021/05/28 01:13:27;;;;;;;17.75;9.55;;;;;;;9.63;100.00;98100.94;4970770;28;20039;-84
2021/05/28 01:15:54;;;;;;;12.65;8.63;;;;;;;9.61;100.00;98112.03;4968263;28;20054;-82
2021/05/28 01:18:20;;;;;;;18.60;9.65;;;;;;;9.62;100.00;98110.97;4954001;28;20046;-83
2021/05/28 01:20:47;;;;;;;17.08;9.73;;;;;;;9.61;100.00;98111.25;4975421;28;20047;-82
2021/05/28 01:23:14;;;;;;;14.75;8.85;;;;;;;9.63;100.00;98112.53;4958226;28;20053;-82
2021/05/28 01:25:40;;;;;;;14.80;9.60;;;;;;;9.58;100.00;98111.81;4957738;28;20051;-84
2021/05/28 01:28:07;;;;;;;16.10;9.80;;;;;;;9.66;100.00;98105.75;4974018;28;20050;-82
2021/05/28 01:30:33;;;;;;;16.50;9.57;;;;;;;9.59;100.00;98106.13;4979311;28;20406;-83
2021/05/28 01:33:01;;;;;;;14.60;9.23;;;;;;;9.70;100.00;98123.00;4957543;28;20047;-83
2021/05/28 01:35:31;;;;;;;16.90;9.70;;;;;;;9.59;100.00;98108.03;4959255;28;20214;-83
2021/05/28 01:37:58;;;;;;;19.13;10.55;;;;;;;9.60;100.00;98110.44;4975216;28;20047;-83
2021/05/28 01:40:24;;;;;;;16.73;9.75;;;;;;;9.54;100.00;98119.75;4973408;28;20104;-83
2021/05/28 01:42:51;;;;;;;19.30;11.02;;;;;;;9.52;100.00;98123.84;4957351;28;20064;-84
2021/05/28 01:45:18;;;;;;;19.20;11.85;;;;;;;9.50;100.00;98132.22;4973355;28;20062;-80
2021/05/28 01:47:45;;;;;;;22.38;11.50;;;;;;;9.39;100.00;98112.66;4973743;28;20043;-82
2021/05/28 01:50:13;;;;;;;20.52;10.23;;;;;;;9.40;100.00;98122.41;4956744;28;20039;-81
2021/05/28 01:52:40;;;;;;;22.75;11.25;;;;;;;9.36;100.00;98117.88;4974045;28;20038;-84
2021/05/28 01:55:13;;;;;;;20.00;11.20;;;;;;;9.39;100.00;98130.81;4957502;28;20135;-83
2021/05/28 01:57:40;;;;;;;20.73;11.38;;;;;;;9.36;100.00;98107.88;4958810;28;20070;-80
2021/05/28 02:00:12;;;;;;;18.85;11.52;;;;;;;9.37;100.00;98114.88;4956457;28;20051;-83
2021/05/28 02:02:38;;;;;;;21.35;11.82;;;;;;;9.28;100.00;98107.75;4957376;28;20039;-83
2021/05/28 02:05:08;;;;;;;21.85;12.00;;;;;;;9.28;100.00;98124.75;4956708;28;20042;-83
2021/05/28 02:07:36;;;;;;;25.38;11.77;;;;;;;9.29;100.00;98112.06;4958417;28;20046;-84
2021/05/28 02:10:04;;;;;;;18.67;11.23;;;;;;;9.32;100.00;98117.66;4957153;28;20039;-82
2021/05/28 02:12:30;;;;;;;26.42;12.25;;;;;;;9.31;100.00;98126.06;4941430;28;20050;-83
2021/05/28 02:14:58;;;;;;;23.92;11.52;;;;;;;9.37;100.00;98114.06;4972429;28;20035;-85
2021/05/28 02:17:25;;;;;;;18.40;11.32;;;;;;;9.36;100.00;98134.09;4976677;28;20042;-83
2021/05/28 02:19:55;;;;;;;19.30;11.60;;;;;;;9.36;100.00;98139.50;4974932;28;20422;-83
2021/05/28 02:22:22;;;;;;;20.63;11.90;;;;;;;9.32;100.00;98128.47;4977723;28;20039;-83
2021/05/28 02:24:48;;;;;;;20.67;11.70;;;;;;;9.33;100.00;98123.88;4974890;28;20046;-82
2021/05/28 02:27:15;;;;;;;19.80;11.57;;;;;;;9.31;100.00;98129.59;4959725;28;20039;-83
2021/05/28 02:29:41;;;;;;;22.20;12.00;;;;;;;9.34;100.00;98134.38;4974977;28;20039;-84
2021/05/28 02:32:08;;;;;;;22.73;11.52;;;;;;;9.26;100.00;98126.16;4958227;28;20042;-82
2021/05/28 02:34:34;;;;;;;22.05;12.25;;;;;;;9.25;100.00;98130.75;4957170;28;20065;-83
2021/05/28 02:37:03;;;;;;;18.73;11.13;;;;;;;9.23;100.00;98142.94;4958478;28;20057;-83
2021/05/28 02:39:30;;;;;;;23.70;11.48;;;;;;;9.19;100.00;98137.31;4975818;28;20047;-83
2021/05/28 02:41:57;;;;;;;21.45;11.88;;;;;;;9.22;100.00;98154.84;4958041;28;20043;-83
2021/05/28 02:44:54;;;;;;;22.27;12.40;;;;;;;9.21;100.00;98145.13;5054164;23;20041;-83
2021/05/28 02:47:36;;;;;;;24.50;12.93;;;;;;;9.13;100.00;98125.00;5081310;28;20040;-82
2021/05/28 02:50:18;;;;;;;22.55;12.70;;;;;;;9.10;100.00;98120.19;5062104;28;20051;-83
2021/05/28 02:53:40;;;;;;;22.73;11.48;;;;;;;9.26;100.00;98142.34;5054247;28;20135;-83
2021/05/28 02:56:51;;;;;;;;;;;;;;;9.29;100.00;98147.19;5082269;28;20055;-82
2021/05/28 02:59:38;;;;;;;22.40;11.63;;;;;;;9.19;100.00;98131.09;5083514;28;19916;-82
2021/05/28 03:03:08;;;;;;;21.70;12.05;;;;;;;9.17;100.00;98123.31;5075254;28;20492;-82
2021/05/28 03:06:33;;;;;;;21.90;12.60;;;;;;;9.30;100.00;98149.56;5048818;28;20051;-81
2021/05/28 03:09:27;;;;;;;;;;;;;;;9.33;100.00;98145.47;5067522;28;20044;-82
2021/05/28 03:11:57;;;;;;;21.80;11.85;;;;;;;9.29;100.00;98142.56;5049249;28;20279;-84
2021/05/28 03:14:29;;;;;;;22.80;12.63;;;;;;;9.29;100.00;98147.19;5076984;28;20510;-83
2021/05/28 03:16:58;;;;;;;23.98;12.52;;;;;;;9.26;100.00;98145.88;5065102;28;20044;-83
2021/05/28 03:19:39;;;;;;;23.90;12.65;;;;;;;9.28;100.00;98148.25;5081312;28;20052;-82
2021/05/28 03:24:52;;;;;;;25.30;12.35;;;;;;;9.28;100.00;98140.97;5079438;28;20044;-83
2021/05/28 03:27:19;;;;;;;23.05;12.32;;;;;;;9.28;100.00;98150.97;5062337;28;20050;-83
2021/05/28 03:29:46;;;;;;;22.95;12.40;;;;;;;9.23;100.00;98145.66;5061359;28;20522;-85
2021/05/28 03:32:35;;;;;;;23.23;13.07;;;;;;;9.26;100.00;98145.06;5043282;28;20058;-81
2021/05/28 03:35:21;;;;;;;21.25;12.75;;;;;;;9.23;100.00;98151.84;5061198;28;20049;-82
2021/05/28 03:38:03;;;;;;;21.77;12.77;;;;;;;9.23;100.00;98143.75;5043882;28;20045;-83
2021/05/28 03:40:31;;;;;;;24.50;12.93;;;;;;;9.20;100.00;98136.22;5079815;28;20070;-82
2021/05/28 03:43:01;;;;;;;20.27;12.18;;;;;;;9.19;100.00;98136.50;5074776;28;20066;-84
2021/05/28 03:45:32;;;;;;;22.85;12.25;;;;;;;9.31;100.00;98144.97;5047982;28;20148;-82
2021/05/28 03:47:59;;;;;;;22.38;12.13;;;;;;;9.32;100.00;98138.47;5058623;28;20040;-82
2021/05/28 03:50:26;;;;;;;19.92;11.80;;;;;;;9.35;100.00;98149.50;5042125;28;20144;-83
2021/05/28 03:52:57;;;;;;;25.52;11.63;;;;;;;9.38;100.00;98143.50;5059032;28;20135;-82
2021/05/28 03:55:23;;;;;;;18.05;11.27;;;;;;;9.48;100.00;98161.44;5057630;28;20048;-82
2021/05/28 03:57:59;;;;;;;18.15;11.13;;;;;;;9.54;100.00;98164.88;5043939;28;20499;-81
2021/05/28 04:00:26;;;;;;;22.80;12.35;;;;;;;9.58;100.00;98152.38;5044793;28;20068;-82
2021/05/28 04:02:54;;;;;;;18.88;11.48;;;;;;;9.64;100.00;98167.41;5041749;28;20076;-83
2021/05/28 04:05:33;;;;;;;19.38;11.18;;;;;;;9.62;100.00;98172.31;5046276;28;20052;-82
2021/05/28 04:08:04;;;;;;;20.10;10.93;;;;;;;9.58;100.00;98165.88;5062498;28;20060;-82
2021/05/28 04:10:31;;;;;;;19.95;11.88;;;;;;;9.65;100.00;98175.22;5063311;28;20048;-83
2021/05/28 04:12:58;;;;;;;18.25;10.95;;;;;;;9.59;100.00;98175.63;5044762;28;20055;-83
2021/05/28 04:15:25;;;;;;;15.90;10.45;;;;;;;9.60;100.00;98183.41;5041804;28;20044;-82
2021/05/28 04:17:52;;;;;;;19.60;11.18;;;;;;;9.56;100.00;98177.00;5042883;28;20048;-83
2021/05/28 04:20:18;;;;;;;23.40;11.23;;;;;;;9.60;100.00;98177.22;5041081;28;20079;-83
2021/05/28 04:22:46;;;;;;;18.80;10.35;;;;;;;9.60;100.00;98178.00;5042646;28;20135;-83
2021/05/28 04:25:13;;;;;;;18.77;10.63;;;;;;;9.57;100.00;98183.22;5040627;28;20056;-82
2021/05/28 04:27:40;;;;;;;16.73;10.52;;;;;;;9.60;100.00;98185.34;5041610;28;20166;-85
2021/05/28 04:30:07;;;;;;;20.65;11.40;;;;;;;9.58;100.00;98184.81;5039281;28;20560;-84
2021/05/28 04:32:34;;;;;;;19.60;12.13;;;;;;;9.52;100.00;98189.50;5057834;28;20040;-83
2021/05/28 04:35:03;;;;;;;25.63;12.85;;;;;;;9.47;100.00;98194.19;5040559;28;20095;-84
2021/05/28 04:37:30;;;;;;;23.75;12.65;;;;;;;9.39;100.00;98201.84;5042125;28;20048;-83
2021/05/28 04:39:56;;;;;;;27.90;13.50;;;;;;;9.30;100.00;98203.63;5043230;28;20052;-84
2021/05/28 04:42:23;;;;;;;28.30;13.55;;;;;;;9.28;100.00;98188.78;5043437;28;20056;-84
2021/05/28 04:44:50;;;;;;;27.30;14.93;;;;;;;9.28;100.00;98202.31;5038036;28;20040;-84
2021/05/28 04:47:17;;;;;;;27.75;15.30;;;;;;;9.28;100.00;98208.50;5039831;28;20048;-83
2021/05/28 04:49:43;;;;;;;27.92;16.17;;;;;;;9.27;100.00;98204.19;5038258;28;20116;-84
2021/05/28 04:52:10;;;;;;;28.52;16.02;;;;;;;9.26;100.00;98209.91;5040263;28;20052;-83
2021/05/28 04:54:39;;;;;;;27.58;16.23;;;;;;;9.23;100.00;98210.47;5040546;28;20127;-83
2021/05/28 04:57:05;;;;;;;28.15;17.00;;;;;;;9.26;100.00;98218.00;5040541;28;20055;-84
2021/05/28 04:59:32;;;;;;;32.50;17.52;;;;;;;9.28;100.00;98221.22;5039648;28;20127;-84
2021/05/28 05:01:59;;;;;;;33.03;17.55;;;;;;;9.28;100.00;98221.22;5060131;28;20374;-84
2021/05/28 05:04:26;;;;;;;32.88;17.33;;;;;;;9.31;100.00;98217.94;5041507;28;20040;-84
2021/05/28 05:06:53;;;;;;;32.10;18.73;;;;;;;9.36;100.00;98220.56;5041519;28;20060;-85
2021/05/28 05:09:19;;;;;;;32.30;18.42;;;;;;;9.37;100.00;98231.06;5041766;28;20051;-85
2021/05/28 05:11:47;;;;;;;34.80;18.58;;;;;;;9.42;100.00;98232.09;5056063;28;20052;-85
2021/05/28 05:14:14;;;;;;;28.48;17.88;;;;;;;9.36;100.00;98242.19;5040665;28;20068;-85
2021/05/28 05:16:41;;;;;;;31.42;17.52;;;;;;;9.42;100.00;98240.22;5042449;28;20076;-85
2021/05/28 05:19:11;;;;;;;26.27;17.27;;;;;;;9.39;100.00;98236.97;5041511;28;20060;-84
2021/05/28 05:21:39;;;;;;;26.48;17.65;;;;;;;9.39;100.00;98244.28;5041014;28;20048;-84
2021/05/28 05:24:10;;;;;;;26.60;18.30;;;;;;;9.40;100.00;98235.88;5058586;28;20040;-84
2021/05/28 05:26:38;;;;;;;29.70;18.40;;;;;;;9.35;100.00;98235.97;5042581;28;20052;-84
2021/05/28 05:29:05;;;;;;;33.47;18.63;;;;;;;9.48;100.00;98250.63;5040138;28;20547;-85
2021/05/28 05:31:32;;;;;;;31.52;18.83;;;;;;;9.50;100.00;98243.03;5039001;28;20067;-85
2021/05/28 05:33:59;;;;;;;26.88;17.30;;;;;;;9.50;100.00;98251.16;5046788;28;20357;-86
2021/05/28 05:36:26;;;;;;;26.42;16.90;;;;;;;9.50;100.00;98251.16;5059168;28;20171;-84
2021/05/28 05:38:53;;;;;;;29.77;16.20;;;;;;;9.50;100.00;98256.56;5043261;28;20761;-86
2021/05/28 05:41:20;;;;;;;25.23;16.05;;;;;;;9.52;100.00;98250.88;5035067;28;20060;-84
2021/05/28 05:43:47;;;;;;;33.30;18.08;;;;;;;9.49;100.00;98254.16;5050197;28;20072;-85
2021/05/28 05:46:14;;;;;;;25.67;16.73;;;;;;;9.54;100.00;98260.28;5054370;28;20105;-85
2021/05/28 05:48:42;;;;;;;34.28;18.88;;;;;;;9.51;100.00;98262.75;5038365;28;20052;-85
2021/05/28 05:51:10;;;;;;;33.42;17.08;;;;;;;9.46;100.00;98260.13;5036726;28;20060;-84
2021/05/28 05:53:37;;;;;;;27.85;15.63;;;;;;;9.51;100.00;98266.28;5038576;28;20507;-83
2021/05/28 05:56:04;;;;;;;24.77;16.92;;;;;;;9.54;100.00;98264.88;5042632;28;20155;-84
2021/05/28 05:58:31;;;;;;;29.30;17.23;;;;;;;9.49;100.00;98265.78;5047342;28;20083;-83
2021/05/28 06:00:58;;;;;;;31.27;16.42;;;;;;;9.50;100.00;98264.66;5045534;28;20071;-84
2021/05/28 06:03:24;;;;;;;27.30;16.35;;;;;;;9.50;100.00;98263.88;5043506;28;20124;-85
2021/05/28 06:05:51;;;;;;;27.35;15.20;;;;;;;9.52;100.00;98267.09;5033051;28;20538;-85
2021/05/28 06:08:18;;;;;;;27.63;16.15;;;;;;;9.52;100.00;98277.91;5059135;28;20029;-84
2021/05/28 06:10:45;;;;;;;21.02;14.75;;;;;;;9.48;100.00;98283.06;5054541;28;20021;-84
2021/05/28 06:13:11;;;;;;;23.20;15.70;;;;;;;9.54;100.00;98275.69;5039733;28;20496;-86
2021/05/28 06:15:38;;;;;;;27.38;15.23;;;;;;;9.54;100.00;98271.09;5051632;28;20059;-85
2021/05/28 06:18:05;;;;;;;22.63;15.10;;;;;;;9.56;100.00;98287.81;5038599;28;20044;-86
2021/05/28 06:20:33;;;;;;;26.23;15.85;;;;;;;9.55;100.00;98280.81;5038148;28;20052;-85
2021/05/28 06:23:00;;;;;;;28.02;17.33;;;;;;;9.54;100.00;98287.31;5044754;28;20052;-87
2021/05/28 06:25:29;;;;;;;30.60;18.65;;;;;;;9.53;100.00;98293.81;5043826;28;20044;-87
2021/05/28 06:27:56;;;;;;;31.33;19.90;;;;;;;9.51;100.00;98290.59;5043772;28;20079;-86
2021/05/28 06:30:23;;;;;;;32.47;19.20;;;;;;;9.51;100.00;98296.00;5034134;28;20124;-87
2021/05/28 06:32:49;;;;;;;32.70;20.63;;;;;;;9.53;100.00;98301.91;5064435;28;20102;-85
2021/05/28 06:35:16;;;;;;;34.38;21.50;;;;;;;9.43;100.00;98290.44;5063149;28;20064;-85
2021/05/28 06:37:43;;;;;;;33.25;22.40;;;;;;;9.45;100.00;98299.88;5045890;28;20477;-86
2021/05/28 06:40:11;;;;;;;38.85;22.85;;;;;;;9.40;100.00;98303.44;5044299;28;20215;-85
2021/05/28 06:42:38;;;;;;;30.90;20.65;;;;;;;9.50;100.00;98309.81;5040289;28;20149;-84
2021/05/28 06:45:06;;;;;;;38.35;23.02;;;;;;;9.52;100.00;98313.84;5020916;28;20464;-87
2021/05/28 06:47:33;;;;;;;33.58;21.85;;;;;;;9.62;100.00;98307.47;5022968;28;20048;-86
2021/05/28 06:50:00;;;;;;;36.70;22.20;;;;;;;9.68;100.00;98303.63;5022453;28;20147;-86
2021/05/28 06:52:26;;;;;;;31.15;20.25;;;;;;;9.66;100.00;98311.19;5020426;28;20060;-85
2021/05/28 06:54:53;;;;;;;33.97;22.13;;;;;;;9.66;100.00;98317.41;5019663;28;20041;-86
2021/05/28 06:57:21;;;;;;;33.83;21.85;;;;;;;9.52;100.00;98313.03;5020208;28;20204;-85
2021/05/28 06:59:48;;;;;;;27.73;19.08;;;;;;;9.51;100.00;98323.03;5036851;28;20052;-85
2021/05/28 07:02:15;;;;;;;31.17;20.50;;;;;;;9.52;100.00;98316.53;5021477;28;20140;-85
2021/05/28 07:04:42;;;;;;;30.58;18.83;;;;;;;9.62;100.00;98327.22;5017999;28;20120;-86
2021/05/28 07:07:08;;;;;;;29.75;17.75;;;;;;;9.71;100.00;98333.56;5020162;28;20585;-85
2021/05/28 07:09:35;;;;;;;25.42;17.48;;;;;;;9.89;100.00;98332.75;5020178;28;20501;-85
2021/05/28 07:12:03;;;;;;;31.83;19.02;;;;;;;9.91;100.00;98318.97;5039422;28;20078;-85
2021/05/28 07:14:30;;;;;;;26.45;17.40;;;;;;;9.97;100.00;98332.09;5057600;28;20082;-85
2021/05/28 07:16:56;;;;;;;25.13;16.55;;;;;;;10.09;100.00;98320.03;5042425;28;20067;-85
2021/05/28 07:19:23;;;;;;;23.70;16.77;;;;;;;10.26;100.00;98321.13;5044726;28;20053;-85
2021/05/28 07:21:50;;;;;;;21.80;15.48;;;;;;;10.46;100.00;98322.69;5043737;28;20049;-85
2021/05/28 07:24:17;;;;;;;21.20;14.30;;;;;;;10.56;100.00;98317.91;5044350;28;20075;-85
2021/05/28 07:26:43;;;;;;;17.40;13.38;;;;;;;10.62;100.00;98321.31;5044602;28;20072;-85
2021/05/28 07:29:12;;;;;;;22.80;13.13;;;;;;;10.71;100.00;98321.44;5044001;28;20044;-86
2021/05/28 07:31:40;;;;;;;15.75;11.68;;;;;;;10.71;100.00;98324.94;5041936;28;20067;-86
2021/05/28 07:34:06;;;;;;;17.70;11.75;;;;;;;10.75;100.00;98331.38;5041483;28;20439;-85
2021/05/28 07:36:33;;;;;;;17.85;12.18;;;;;;;10.63;100.00;98325.66;5058674;28;20083;-86
2021/05/28 07:39:00;;;;;;;17.63;13.25;;;;;;;10.65;100.00;98328.84;5043669;28;20109;-84
2021/05/28 07:41:27;;;;;;;17.88;12.25;;;;;;;10.79;100.00;98332.38;5043673;28;20520;-84
2021/05/28 07:43:59;;;;;;;20.33;13.77;;;;;;;10.99;100.00;98329.31;5041574;28;20071;-85
2021/05/28 07:46:26;;;;;;;17.77;12.07;;;;;;;11.07;100.00;98333.22;5057877;28;20040;-85
2021/05/28 07:48:53;;;;;;;17.60;11.10;;;;;;;10.98;100.00;98321.47;5042954;28;20140;-85
2021/05/28 07:51:20;;;;;;;13.95;10.23;;;;;;;11.21;100.00;98331.28;5040197;28;20048;-84
2021/05/28 07:53:47;;;;;;;12.43;9.02;;;;;;;11.26;100.00;98323.06;5057674;28;20064;-84
2021/05/28 07:56:13;;;;;;;14.93;8.93;;;;;;;11.16;100.00;98323.28;5041214;28;20045;-85
2021/05/28 07:58:42;;;;;;;12.65;9.93;;;;;;;11.37;100.00;98323.66;5042564;28;20055;-84
2021/05/28 08:01:09;;;;;;;12.40;8.75;;;;;;;11.43;100.00;98328.69;5057977;28;20102;-84
2021/05/28 08:03:36;;;;;;;13.02;8.70;;;;;;;11.58;100.00;98322.13;5052023;28;20048;-85
2021/05/28 08:06:05;;;;;;;9.05;7.03;;;;;;;11.66;100.00;98324.13;5070627;28;20112;-84
2021/05/28 08:08:31;;;;;;;10.15;6.65;;;;;;;11.72;100.00;98325.63;5059932;28;20072;-84
2021/05/28 08:10:58;;;;;;;12.65;5.25;;;;;;;11.91;100.00;98304.59;5060590;28;20139;-83
2021/05/28 08:13:25;;;;;;;8.35;5.93;;;;;;;12.35;100.00;98318.19;5058813;28;20056;-83
2021/05/28 08:15:53;;;;;;;8.65;5.85;;;;;;;12.37;100.00;98315.16;5059163;28;20047;-84
2021/05/28 08:18:20;;;;;;;9.63;5.97;;;;;;;12.33;100.00;98323.13;5060096;28;20093;-85
2021/05/28 08:20:46;;;;;;;8.93;4.75;;;;;;;12.48;100.00;98314.59;5043876;28;20048;-84
2021/05/28 08:23:13;;;;;;;9.80;3.95;;;;;;;12.46;100.00;98316.78;5043130;28;20110;-82
2021/05/28 08:25:40;;;;;;;7.03;4.63;;;;;;;12.52;100.00;98312.03;5050047;28;20075;-83
2021/05/28 08:28:07;;;;;;;8.88;4.57;;;;;;;12.38;100.00;98316.75;5062393;28;20484;-83
2021/05/28 08:30:34;;;;;;;5.93;4.10;;;;;;;12.26;100.00;98313.81;5060162;28;20055;-81
2021/05/28 08:33:01;;;;;;;6.95;4.65;;;;;;;12.43;100.00;98316.63;5079341;28;20048;-83
2021/05/28 08:35:28;;;;;;;8.40;4.50;;;;;;;12.48;100.00;98324.66;5078432;28;20504;-83
2021/05/28 08:37:57;;;;;;;9.30;4.70;;;;;;;12.63;100.00;98320.72;5062192;28;20048;-83
2021/05/28 08:40:25;;;;;;;7.63;4.85;;;;;;;12.84;100.00;98324.53;5063521;28;20052;-82
2021/05/28 08:42:52;;;;;;;8.85;4.57;;;;;;;12.63;100.00;98321.53;5063853;28;20052;-82
2021/05/28 08:45:19;;;;;;;5.35;4.07;;;;;;;13.01;100.00;98313.72;5055309;23;20057;-83
2021/05/28 08:47:49;;;;;;;6.63;3.97;;;;;;;12.93;100.00;98298.97;5038781;28;20135;-82
2021/05/28 08:50:24;;;;;;;9.38;4.03;;;;;;;13.18;100.00;98308.41;5076141;28;20094;-82
2021/05/28 08:52:50;;;;;;;6.97;4.18;;;;;;;13.02;100.00;98316.16;5041747;28;20572;-80
2021/05/28 08:55:18;;;;;;;8.30;3.65;;;;;;;12.76;100.00;98317.94;5076094;28;20075;-82
2021/05/28 08:57:55;;;;;;;9.80;4.40;;;;;;;12.40;100.00;98317.25;5077628;28;20055;-86
2021/05/28 09:00:27;;;;;;;;;;;;;;;12.49;100.00;98316.19;5063956;28;20040;-85
2021/05/28 09:03:21;;;;;;;9.38;4.35;;;;;;;12.33;100.00;98317.69;5046129;28;20003;-85
2021/05/28 09:05:56;;;;;;;9.45;4.57;;;;;;;12.40;100.00;98328.91;5037231;28;20574;-84
2021/05/28 09:08:37;;;;;;;6.00;4.28;;;;;;;12.46;100.00;98327.66;5044166;28;20503;-86
2021/05/28 09:11:15;;;;;;;7.35;5.32;;;;;;;12.40;100.00;98306.38;5053157;28;20112;-86
2021/05/28 09:14:05;;;;;;;7.78;4.88;;;;;;;12.27;100.00;98310.78;5055099;28;20033;-85
2021/05/28 09:16:32;;;;;;;11.23;5.68;;;;;;;12.25;100.00;98310.28;5061571;28;20056;-83
2021/05/28 09:19:03;;;;;;;7.97;6.03;;;;;;;12.43;100.00;98322.88;5049156;28;20055;-84
2021/05/28 09:21:36;;;;;;;7.97;5.68;;;;;;;12.52;100.00;98338.41;5044684;28;20048;-84
2021/05/28 09:24:06;;;;;;;6.20;4.78;;;;;;;12.54;100.00;98325.31;5028928;28;20045;-83
2021/05/28 09:26:36;;;;;;;8.30;5.30;;;;;;;12.98;100.00;98330.69;5036954;28;20040;-84
2021/05/28 09:29:07;;;;;;;8.55;4.28;;;;;;;13.10;100.00;98323.56;5052622;28;20113;-84
2021/05/28 09:31:35;;;;;;;6.88;4.72;;;;;;;13.08;100.00;98331.22;5050819;28;20049;-86
2021/05/28 09:34:05;;;;;;;7.75;4.38;;;;;;;13.37;100.00;98330.66;5050645;28;20102;-85
2021/05/28 09:36:36;;;;;;;8.60;4.43;;;;;;;13.43;100.00;98325.88;5052527;28;20098;-83
2021/05/28 09:39:15;;;;;;;6.10;4.30;;;;;;;13.41;100.00;98318.06;5048086;28;20052;-87
2021/05/28 09:41:57;;;;;;;6.88;3.78;;;;;;;13.64;100.00;98330.44;5046292;28;20051;-84
2021/05/28 09:44:34;;;;;;;7.82;4.10;;;;;;;13.65;100.00;98320.34;5044170;28;20048;-84
2021/05/28 09:47:19;;;;;;;5.32;3.40;;;;;;;13.91;100.00;98307.56;5040024;28;20049;-86
2021/05/28 09:49:52;;;;;;;5.57;3.42;;;;;;;14.48;100.00;98324.53;5067714;28;20058;-82
2021/05/28 09:52:39;;;;;;;6.07;3.83;;;;;;;14.30;100.00;98326.44;5064215;28;20040;-83
2021/05/28 09:55:13;;;;;;;7.35;4.20;;;;;;;14.25;100.00;98323.09;5043501;28;20052;-84
2021/05/28 09:57:44;;;;;;;8.25;2.90;;;;;;;14.76;100.00;98328.47;5042769;28;20139;-85
2021/05/28 10:00:33;;;;;;;4.75;3.05;;;;;;;15.69;100.00;98319.44;5045082;28;20067;-83
2021/05/28 10:03:19;;;;;;;5.88;3.20;;;;;;;16.26;100.00;98314.94;5008424;28;20113;-85
2021/05/28 10:05:51;;;;;;;6.80;3.08;;;;;;;15.18;100.00;98315.00;5015350;28;20068;-86
2021/05/28 10:08:44;;;;;;;7.82;3.47;;;;;;;15.39;100.00;98321.34;5013684;28;20050;-86
2021/05/28 10:11:11;;;;;;;6.13;2.60;;;;;;;15.26;100.00;98323.16;5008787;28;20100;-83
2021/05/28 10:13:41;;;;;;;7.32;2.88;;;;;;;14.55;100.00;98315.88;5021626;28;20049;-84
2021/05/28 10:16:31;;;;;;;4.35;2.58;;;;;;;14.70;100.00;98318.09;5005117;28;20062;-86
2021/05/28 10:19:15;;;;;;;4.43;2.70;;;;;;;16.14;100.00;98310.25;5014942;28;20072;-87
2021/05/28 10:21:44;;;;;;;5.97;3.50;;;;;;;16.97;100.00;98303.81;5044703;28;20116;-85
2021/05/28 10:24:19;;;;;;;4.90;2.67;;;;;;;17.43;100.00;98295.16;5044199;28;20059;-83
2021/05/28 10:26:58;;;;;;;5.60;2.53;;;;;;;17.65;100.00;98299.41;5062396;28;20056;-84
2021/05/28 10:29:30;;;;;;;3.15;1.70;;;;;;;17.73;100.00;98296.50;5043352;28;20059;-87
2021/05/28 10:31:58;;;;;;;5.88;2.00;;;;;;;17.83;100.00;98298.78;5048176;28;20074;-84
2021/05/28 10:34:31;;;;;;;3.72;2.30;;;;;;;18.75;87.35;98311.59;5065017;28;20285;-87
2021/05/28 10:37:30;;;;;;;6.82;2.60;;;;;;;18.13;95.56;98282.84;5033782;28;20041;-84
2021/05/28 10:43:27;;;;;;;5.00;1.70;;;;;;;19.06;69.23;98298.72;5030498;28;20099;-84
2021/05/28 10:46:08;;;;;;;3.03;1.67;;;;;;;20.06;74.06;98285.34;5049680;28;20045;-85
2021/05/28 10:48:50;;;;;;;3.60;1.80;;;;;;;19.04;63.19;98300.22;5032631;28;20045;-85
2021/05/28 10:51:22;;;;;;;3.28;2.03;;;;;;;17.28;99.17;98301.31;5031773;28;20045;-85
2021/05/28 10:53:52;;;;;;;6.15;2.00;;;;;;;15.57;100.00;98303.75;5040685;28;20041;-87
2021/05/28 10:56:30;;;;;;;4.55;2.20;;;;;;;14.02;100.00;98288.97;5046581;28;20148;-85
2021/05/28 10:59:16;;;;;;;4.63;1.98;;;;;;;13.75;100.00;98295.56;5062870;28;20053;-84
2021/05/28 11:01:55;;;;;;;4.07;2.00;;;;;;;13.39;100.00;98305.91;5044874;28;20045;-84
2021/05/28 11:04:37;;;;;;;3.33;1.90;;;;;;;13.28;100.00;98299.16;5059630;28;20113;-84
2021/05/28 11:07:17;;;;;;;4.03;1.85;;;;;;;13.31;100.00;98287.63;5044286;28;20045;-86
2021/05/28 11:09:51;;;;;;;4.00;2.10;;;;;;;13.31;100.00;98280.28;5025085;28;20056;-84
2021/05/28 11:12:35;;;;;;;4.38;2.08;;;;;;;13.79;100.00;98306.59;5040190;28;20045;-85
2021/05/28 11:15:12;;;;;;;6.40;2.10;;;;;;;13.56;100.00;98284.16;5040908;28;20080;-85
2021/05/28 11:17:59;;;;;;;2.95;1.95;;;;;;;13.91;100.00;98306.78;5042299;28;20048;-84
2021/05/28 11:20:35;;;;;;;5.80;2.13;;;;;;;13.95;100.00;98305.00;5024834;28;20140;-85
2021/05/28 11:23:22;;;;;;;7.60;1.88;;;;;;;13.83;100.00;98296.69;5032492;28;20044;-85
2021/05/28 11:26:26;;;;;;;4.43;1.90;;;;;;;14.36;100.00;98288.97;5051953;28;20037;-85
2021/05/28 11:29:01;;;;;;;5.20;1.25;;;;;;;14.57;100.00;98289.09;5005928;28;20045;-83
2021/05/28 11:32:05;;;;;;;4.22;1.23;;;;;;;15.02;100.00;98301.13;5015058;28;20051;-84
2021/05/28 11:38:31;;;;;;;1.88;1.20;;;;;;;15.48;78.23;98264.81;5023775;28;20037;-86
2021/05/28 11:41:25;;;;;;;2.67;1.58;;;;;;;17.55;72.02;98264.28;5035229;28;20073;-84
2021/05/28 11:43:55;;;;;;;5.22;1.80;;;;;;;18.90;61.53;98262.22;5046884;28;20080;-84
2021/05/28 11:46:31;;;;;;;4.15;1.75;;;;;;;20.00;57.67;98240.06;5042587;28;20104;-82
2021/05/28 11:49:07;;;;;;;5.43;1.92;;;;;;;19.62;57.02;98277.31;5053648;28;20108;-88
2021/05/28 11:51:44;;;;;;;6.97;1.95;;;;;;;18.17;66.69;98270.00;5030151;28;20426;-85